sensor_id;sensor_type;location;lat;lon;timestamp;P1;durP1;ratioP1;P2;durP2;ratioP2
34521;SDS011;25561;48.888;8.736;2022-11-18T06:49:46;14.15;;;4.93;;
34521;SDS011;25561;48.888;8.736;2022-11-18T06:52:48;13.93;;;6.40;;
34521;SDS011;25561;48.888;8.736;2022-11-18T06:55:50;12.07;;;4.85;;
34521;SDS011;25561;48.888;8.736;2022-11-18T06:58:52;8.23;;;4.30;;
34521;SDS011;25561;48.888;8.736;2022-11-18T07:01:55;8.23;;;2.60;;
34521;SDS011;25561;48.888;8.736;2022-11-18T07:04:57;3.80;;;1.65;;
34521;SDS011;25561;48.888;8.736;2022-11-18T07:07:59;2.50;;;1.30;;
34521;SDS011;25561;48.888;8.736;2022-11-18T07:11:02;3.25;;;1.33;;
34521;SDS011;25561;48.888;8.736;2022-11-18T07:14:06;1.67;;;0.80;;
34521;SDS011;25561;48.888;8.736;2022-11-18T07:17:10;0.82;;;0.75;;
34521;SDS011;25561;48.888;8.736;2022-11-18T07:20:12;2.83;;;0.80;;
34521;SDS011;25561;48.888;8.736;2022-11-18T07:23:15;1.08;;;0.57;;
34521;SDS011;25561;48.888;8.736;2022-11-18T07:26:18;1.70;;;0.70;;
34521;SDS011;25561;48.888;8.736;2022-11-18T07:33:00;1.02;;;0.70;;
34521;SDS011;25561;48.888;8.736;2022-11-18T07:36:04;15.73;;;6.15;;
34521;SDS011;25561;48.888;8.736;2022-11-18T07:39:16;2.53;;;1.15;;
34521;SDS011;25561;48.888;8.736;2022-11-18T07:42:19;1.95;;;1.20;;
34521;SDS011;25561;48.888;8.736;2022-11-18T07:45:21;1.35;;;0.70;;
34521;SDS011;25561;48.888;8.736;2022-11-18T07:48:25;1.98;;;0.88;;
34521;SDS011;25561;48.888;8.736;2022-11-18T07:51:29;2.70;;;1.48;;
34521;SDS011;25561;48.888;8.736;2022-11-18T07:54:34;2.65;;;1.40;;
34521;SDS011;25561;48.888;8.736;2022-11-18T07:57:36;2.67;;;1.48;;
34521;SDS011;25561;48.888;8.736;2022-11-18T08:00:38;3.28;;;1.05;;
34521;SDS011;25561;48.888;8.736;2022-11-18T08:03:40;6.93;;;1.52;;
34521;SDS011;25561;48.888;8.736;2022-11-18T08:06:42;5.10;;;2.42;;
34521;SDS011;25561;48.888;8.736;2022-11-18T08:09:44;2.47;;;1.80;;
34521;SDS011;25561;48.888;8.736;2022-11-18T08:12:47;9.82;;;1.60;;
34521;SDS011;25561;48.888;8.736;2022-11-18T08:15:49;2.47;;;1.50;;
34521;SDS011;25561;48.888;8.736;2022-11-18T08:18:51;2.40;;;1.40;;
34521;SDS011;25561;48.888;8.736;2022-11-18T08:21:55;3.67;;;1.10;;
34521;SDS011;25561;48.888;8.736;2022-11-18T08:24:57;1.10;;;0.70;;
34521;SDS011;25561;48.888;8.736;2022-11-18T08:27:58;4.03;;;1.25;;
34521;SDS011;25561;48.888;8.736;2022-11-18T08:31:07;1.88;;;1.17;;
34521;SDS011;25561;48.888;8.736;2022-11-18T08:34:11;6.70;;;3.80;;
34521;SDS011;25561;48.888;8.736;2022-11-18T08:37:13;10.88;;;5.80;;
34521;SDS011;25561;48.888;8.736;2022-11-18T08:40:15;8.48;;;4.68;;
34521;SDS011;25561;48.888;8.736;2022-11-18T08:43:17;19.73;;;6.55;;
34521;SDS011;25561;48.888;8.736;2022-11-18T08:46:18;11.85;;;6.07;;
34521;SDS011;25561;48.888;8.736;2022-11-18T08:49:21;5.55;;;2.10;;
34521;SDS011;25561;48.888;8.736;2022-11-18T08:52:28;2.88;;;1.02;;
34521;SDS011;25561;48.888;8.736;2022-11-18T08:55:30;1.83;;;1.20;;
34521;SDS011;25561;48.888;8.736;2022-11-18T08:58:32;4.57;;;1.17;;
34521;SDS011;25561;48.888;8.736;2022-11-18T09:01:35;4.32;;;1.15;;
34521;SDS011;25561;48.888;8.736;2022-11-18T09:04:38;1.85;;;1.17;;
34521;SDS011;25561;48.888;8.736;2022-11-18T09:07:39;3.25;;;2.20;;
34521;SDS011;25561;48.888;8.736;2022-11-18T09:10:42;3.35;;;1.80;;
34521;SDS011;25561;48.888;8.736;2022-11-18T09:13:44;3.05;;;1.73;;
34521;SDS011;25561;48.888;8.736;2022-11-18T09:17:07;3.95;;;2.30;;
34521;SDS011;25561;48.888;8.736;2022-11-18T09:20:10;8.88;;;3.42;;
34521;SDS011;25561;48.888;8.736;2022-11-18T09:23:12;6.93;;;2.45;;
34521;SDS011;25561;48.888;8.736;2022-11-18T09:26:15;5.55;;;3.08;;
34521;SDS011;25561;48.888;8.736;2022-11-18T09:29:19;6.35;;;3.75;;
34521;SDS011;25561;48.888;8.736;2022-11-18T09:32:25;18.42;;;5.70;;
34521;SDS011;25561;48.888;8.736;2022-11-18T09:35:28;8.07;;;4.13;;
34521;SDS011;25561;48.888;8.736;2022-11-18T09:38:30;12.23;;;4.15;;
34521;SDS011;25561;48.888;8.736;2022-11-18T09:45:33;10.57;;;4.55;;
34521;SDS011;25561;48.888;8.736;2022-11-18T09:48:38;8.07;;;4.32;;
34521;SDS011;25561;48.888;8.736;2022-11-18T09:52:02;10.02;;;4.65;;
34521;SDS011;25561;48.888;8.736;2022-11-18T09:55:11;14.32;;;7.90;;
34521;SDS011;25561;48.888;8.736;2022-11-18T09:58:25;11.85;;;4.90;;
34521;SDS011;25561;48.888;8.736;2022-11-18T10:01:34;20.48;;;4.80;;
34521;SDS011;25561;48.888;8.736;2022-11-18T10:04:37;13.00;;;5.88;;
34521;SDS011;25561;48.888;8.736;2022-11-18T10:07:41;12.77;;;3.88;;
34521;SDS011;25561;48.888;8.736;2022-11-18T10:11:22;15.13;;;4.65;;
34521;SDS011;25561;48.888;8.736;2022-11-18T10:14:35;11.13;;;4.38;;
34521;SDS011;25561;48.888;8.736;2022-11-18T10:18:13;15.93;;;5.13;;
34521;SDS011;25561;48.888;8.736;2022-11-18T10:22:21;10.50;;;4.20;;
34521;SDS011;25561;48.888;8.736;2022-11-18T10:25:28;11.77;;;4.78;;
34521;SDS011;25561;48.888;8.736;2022-11-18T10:28:30;12.57;;;6.03;;
34521;SDS011;25561;48.888;8.736;2022-11-18T10:31:35;13.25;;;6.68;;
34521;SDS011;25561;48.888;8.736;2022-11-18T10:34:48;12.10;;;4.40;;
34521;SDS011;25561;48.888;8.736;2022-11-18T10:41:19;6.70;;;3.22;;
34521;SDS011;25561;48.888;8.736;2022-11-18T10:44:24;5.93;;;2.55;;
34521;SDS011;25561;48.888;8.736;2022-11-18T10:47:36;4.00;;;2.10;;
34521;SDS011;25561;48.888;8.736;2022-11-18T10:50:39;5.20;;;2.30;;
34521;SDS011;25561;48.888;8.736;2022-11-18T10:53:43;6.57;;;1.95;;
34521;SDS011;25561;48.888;8.736;2022-11-18T10:56:46;5.80;;;3.00;;
34521;SDS011;25561;48.888;8.736;2022-11-18T10:59:58;7.22;;;3.10;;
34521;SDS011;25561;48.888;8.736;2022-11-18T11:03:11;10.15;;;2.78;;
34521;SDS011;25561;48.888;8.736;2022-11-18T11:06:35;7.57;;;2.65;;
34521;SDS011;25561;48.888;8.736;2022-11-18T11:09:38;5.22;;;2.38;;
34521;SDS011;25561;48.888;8.736;2022-11-18T11:12:41;6.97;;;3.35;;
34521;SDS011;25561;48.888;8.736;2022-11-18T11:15:47;8.48;;;2.90;;
34521;SDS011;25561;48.888;8.736;2022-11-18T11:18:56;7.45;;;2.38;;
34521;SDS011;25561;48.888;8.736;2022-11-18T11:22:04;7.78;;;2.20;;
34521;SDS011;25561;48.888;8.736;2022-11-18T11:25:11;8.35;;;2.75;;
34521;SDS011;25561;48.888;8.736;2022-11-18T11:28:34;10.25;;;2.92;;
34521;SDS011;25561;48.888;8.736;2022-11-18T11:35:30;14.77;;;3.55;;
34521;SDS011;25561;48.888;8.736;2022-11-18T11:46:17;8.02;;;2.85;;
34521;SDS011;25561;48.888;8.736;2022-11-18T11:49:44;7.72;;;3.03;;
34521;SDS011;25561;48.888;8.736;2022-11-18T11:53:06;7.32;;;2.35;;
34521;SDS011;25561;48.888;8.736;2022-11-18T12:00:17;9.27;;;3.15;;
34521;SDS011;25561;48.888;8.736;2022-11-18T12:03:22;11.88;;;4.72;;
34521;SDS011;25561;48.888;8.736;2022-11-18T12:06:39;13.13;;;3.92;;
34521;SDS011;25561;48.888;8.736;2022-11-18T12:09:46;9.30;;;3.10;;
34521;SDS011;25561;48.888;8.736;2022-11-18T12:16:33;15.40;;;4.05;;
34521;SDS011;25561;48.888;8.736;2022-11-18T12:19:45;17.33;;;4.72;;
34521;SDS011;25561;48.888;8.736;2022-11-18T12:26:10;11.95;;;3.53;;
34521;SDS011;25561;48.888;8.736;2022-11-18T12:29:20;16.30;;;6.35;;
34521;SDS011;25561;48.888;8.736;2022-11-18T12:35:32;10.35;;;3.40;;
34521;SDS011;25561;48.888;8.736;2022-11-18T12:38:34;13.75;;;3.22;;
34521;SDS011;25561;48.888;8.736;2022-11-18T12:45:36;11.77;;;4.13;;
34521;SDS011;25561;48.888;8.736;2022-11-18T12:48:42;9.25;;;3.30;;
34521;SDS011;25561;48.888;8.736;2022-11-18T12:51:44;8.90;;;2.95;;
34521;SDS011;25561;48.888;8.736;2022-11-18T12:54:47;11.20;;;2.83;;
34521;SDS011;25561;48.888;8.736;2022-11-18T12:57:50;9.77;;;2.80;;
34521;SDS011;25561;48.888;8.736;2022-11-18T13:01:10;15.43;;;2.38;;
34521;SDS011;25561;48.888;8.736;2022-11-18T13:04:15;15.60;;;4.65;;
34521;SDS011;25561;48.888;8.736;2022-11-18T13:07:20;8.35;;;2.88;;
34521;SDS011;25561;48.888;8.736;2022-11-18T13:13:45;7.68;;;2.80;;
34521;SDS011;25561;48.888;8.736;2022-11-18T13:16:47;8.68;;;2.80;;
34521;SDS011;25561;48.888;8.736;2022-11-18T13:20:26;8.93;;;2.60;;
34521;SDS011;25561;48.888;8.736;2022-11-18T13:23:33;9.65;;;2.53;;
34521;SDS011;25561;48.888;8.736;2022-11-18T13:27:01;9.23;;;2.55;;
34521;SDS011;25561;48.888;8.736;2022-11-18T13:30:04;7.05;;;2.45;;
34521;SDS011;25561;48.888;8.736;2022-11-18T13:33:13;7.70;;;2.63;;
34521;SDS011;25561;48.888;8.736;2022-11-18T13:36:16;6.38;;;2.42;;
34521;SDS011;25561;48.888;8.736;2022-11-18T13:42:25;6.65;;;3.10;;
34521;SDS011;25561;48.888;8.736;2022-11-18T13:48:31;8.70;;;3.30;;
34521;SDS011;25561;48.888;8.736;2022-11-18T13:51:36;9.07;;;3.03;;
34521;SDS011;25561;48.888;8.736;2022-11-18T13:54:38;9.25;;;2.85;;
34521;SDS011;25561;48.888;8.736;2022-11-18T13:57:44;7.32;;;2.80;;
34521;SDS011;25561;48.888;8.736;2022-11-18T14:00:55;6.43;;;2.80;;
34521;SDS011;25561;48.888;8.736;2022-11-18T14:04:02;10.40;;;2.65;;
34521;SDS011;25561;48.888;8.736;2022-11-18T14:07:14;11.80;;;3.25;;
34521;SDS011;25561;48.888;8.736;2022-11-18T14:10:41;9.20;;;2.97;;
34521;SDS011;25561;48.888;8.736;2022-11-18T14:13:58;7.22;;;3.05;;
34521;SDS011;25561;48.888;8.736;2022-11-18T14:17:04;13.65;;;3.50;;
34521;SDS011;25561;48.888;8.736;2022-11-18T14:20:18;15.20;;;4.72;;
34521;SDS011;25561;48.888;8.736;2022-11-18T14:23:23;9.75;;;3.17;;
34521;SDS011;25561;48.888;8.736;2022-11-18T14:26:30;18.25;;;6.47;;
34521;SDS011;25561;48.888;8.736;2022-11-18T14:29:34;10.68;;;4.90;;
34521;SDS011;25561;48.888;8.736;2022-11-18T14:32:36;9.73;;;3.33;;
34521;SDS011;25561;48.888;8.736;2022-11-18T14:35:39;7.40;;;3.20;;
34521;SDS011;25561;48.888;8.736;2022-11-18T14:38:44;8.63;;;3.20;;
34521;SDS011;25561;48.888;8.736;2022-11-18T14:42:10;8.77;;;3.38;;
34521;SDS011;25561;48.888;8.736;2022-11-18T14:45:13;11.73;;;3.27;;
34521;SDS011;25561;48.888;8.736;2022-11-18T14:48:16;21.55;;;3.70;;
34521;SDS011;25561;48.888;8.736;2022-11-18T14:51:22;13.48;;;3.40;;
34521;SDS011;25561;48.888;8.736;2022-11-18T14:54:26;10.68;;;3.45;;
34521;SDS011;25561;48.888;8.736;2022-11-18T14:57:28;13.60;;;3.50;;
34521;SDS011;25561;48.888;8.736;2022-11-18T15:00:30;9.15;;;3.70;;
34521;SDS011;25561;48.888;8.736;2022-11-18T15:03:33;22.65;;;3.70;;
34521;SDS011;25561;48.888;8.736;2022-11-18T15:06:59;10.73;;;3.95;;
34521;SDS011;25561;48.888;8.736;2022-11-18T15:10:54;15.27;;;3.78;;
34521;SDS011;25561;48.888;8.736;2022-11-18T15:13:56;11.45;;;3.72;;
34521;SDS011;25561;48.888;8.736;2022-11-18T15:16:58;15.98;;;3.80;;
34521;SDS011;25561;48.888;8.736;2022-11-18T15:19:59;12.95;;;5.30;;
34521;SDS011;25561;48.888;8.736;2022-11-18T15:23:01;11.52;;;4.63;;
34521;SDS011;25561;48.888;8.736;2022-11-18T15:26:14;14.98;;;4.97;;
34521;SDS011;25561;48.888;8.736;2022-11-18T15:29:19;17.83;;;5.33;;
34521;SDS011;25561;48.888;8.736;2022-11-18T15:32:22;10.10;;;4.18;;
34521;SDS011;25561;48.888;8.736;2022-11-18T15:35:23;14.13;;;5.22;;
34521;SDS011;25561;48.888;8.736;2022-11-18T15:38:26;17.55;;;4.13;;
34521;SDS011;25561;48.888;8.736;2022-11-18T15:41:28;13.48;;;4.20;;
34521;SDS011;25561;48.888;8.736;2022-11-18T15:44:30;15.45;;;4.63;;
34521;SDS011;25561;48.888;8.736;2022-11-18T15:47:32;15.23;;;4.82;;
34521;SDS011;25561;48.888;8.736;2022-11-18T15:50:34;13.30;;;4.22;;
34521;SDS011;25561;48.888;8.736;2022-11-18T15:53:36;15.15;;;5.22;;
34521;SDS011;25561;48.888;8.736;2022-11-18T15:56:37;25.02;;;5.43;;
34521;SDS011;25561;48.888;8.736;2022-11-18T15:59:40;26.77;;;9.55;;
34521;SDS011;25561;48.888;8.736;2022-11-18T16:02:41;22.17;;;5.75;;
34521;SDS011;25561;48.888;8.736;2022-11-18T16:05:45;14.15;;;5.43;;
34521;SDS011;25561;48.888;8.736;2022-11-18T16:08:47;12.77;;;4.75;;
34521;SDS011;25561;48.888;8.736;2022-11-18T16:11:52;13.45;;;5.68;;
34521;SDS011;25561;48.888;8.736;2022-11-18T16:15:15;16.02;;;6.18;;
34521;SDS011;25561;48.888;8.736;2022-11-18T16:18:37;24.73;;;6.07;;
34521;SDS011;25561;48.888;8.736;2022-11-18T16:21:41;26.08;;;6.95;;
34521;SDS011;25561;48.888;8.736;2022-11-18T16:24:46;17.98;;;5.85;;
34521;SDS011;25561;48.888;8.736;2022-11-18T16:27:48;22.70;;;6.35;;
34521;SDS011;25561;48.888;8.736;2022-11-18T16:30:50;17.38;;;5.18;;
34521;SDS011;25561;48.888;8.736;2022-11-18T16:34:13;20.70;;;5.95;;
34521;SDS011;25561;48.888;8.736;2022-11-18T16:37:16;13.80;;;5.47;;
34521;SDS011;25561;48.888;8.736;2022-11-18T16:40:18;17.08;;;6.07;;
34521;SDS011;25561;48.888;8.736;2022-11-18T16:43:21;20.70;;;6.75;;
34521;SDS011;25561;48.888;8.736;2022-11-18T16:46:23;21.30;;;7.05;;
34521;SDS011;25561;48.888;8.736;2022-11-18T16:49:26;20.02;;;7.05;;
34521;SDS011;25561;48.888;8.736;2022-11-18T16:52:28;22.00;;;7.50;;
34521;SDS011;25561;48.888;8.736;2022-11-18T16:55:30;15.82;;;7.88;;
34521;SDS011;25561;48.888;8.736;2022-11-18T16:58:31;17.35;;;7.25;;
